createdAt,value
2018-07-10T15:20:24.239Z,9.18
2018-07-10T15:26:45.187Z,9.57
2018-07-10T15:29:21.214Z,9.50
2018-07-10T15:31:52.397Z,8.43
2018-07-10T15:34:23.368Z,8.70
2018-07-10T15:36:54.918Z,9.43
2018-07-10T15:39:26.486Z,9.07
2018-07-10T15:41:57.926Z,9.73
2018-07-10T15:44:29.718Z,9.00
2018-07-10T15:47:04.467Z,8.93
2018-07-10T15:49:35.767Z,9.00
2018-07-10T15:52:08.326Z,9.30
2018-07-10T15:54:40.103Z,9.47
2018-07-10T15:57:15.778Z,9.73
2018-07-10T15:59:49.144Z,9.23
2018-07-10T16:02:25.514Z,8.80
2018-07-10T16:05:05.938Z,8.90
2018-07-10T16:07:41.074Z,9.10
2018-07-10T16:10:18.579Z,9.17
2018-07-10T16:12:56.297Z,9.50
2018-07-10T16:15:32.883Z,9.40
2018-07-10T16:18:19.346Z,12.40
2018-07-10T16:20:57.922Z,9.70
2018-07-10T16:23:34.387Z,11.00
2018-07-10T16:26:09.602Z,10.40
2018-07-10T16:28:46.707Z,12.57
2018-07-10T16:31:24.036Z,10.57
2018-07-10T16:34:01.026Z,9.53
2018-07-10T16:36:36.434Z,10.07
2018-07-10T16:39:11.525Z,10.40
2018-07-10T16:41:52.442Z,9.70
2018-07-10T16:44:29.085Z,8.87
2018-07-10T16:47:13.465Z,8.90
2018-07-10T16:49:50.913Z,9.33
2018-07-10T16:53:32.338Z,10.30
2018-07-10T16:56:08.738Z,10.27
2018-07-10T16:58:46.834Z,10.10
2018-07-10T17:01:28.038Z,9.87
2018-07-10T17:04:06.642Z,10.80
2018-07-10T17:06:43.666Z,10.07
2018-07-10T17:09:19.266Z,12.47
2018-07-10T17:11:55.603Z,16.43
2018-07-10T17:14:32.099Z,10.67
2018-07-10T17:17:13.314Z,10.40
2018-07-10T17:19:46.643Z,10.97
2018-07-10T17:22:29.443Z,10.10
2018-07-10T17:25:07.826Z,8.83
2018-07-10T17:27:45.330Z,9.30
2018-07-10T17:30:25.025Z,8.27
2018-07-10T17:33:09.487Z,9.57
2018-07-10T17:35:55.106Z,8.77
2018-07-10T17:38:38.274Z,9.33
2018-07-10T18:07:16.111Z,10.33
2018-07-10T18:09:56.470Z,9.60
2018-07-10T18:12:28.075Z,9.90
2018-07-10T18:14:58.621Z,9.90
2018-07-10T18:17:29.334Z,8.53
2018-07-10T18:20:00.693Z,9.60
2018-07-10T18:22:31.218Z,8.60
2018-07-10T18:25:01.899Z,11.00
2018-07-10T18:27:34.150Z,10.80
2018-07-10T18:30:05.659Z,9.90
2018-07-10T18:32:36.760Z,10.30
2018-07-10T18:35:08.140Z,10.90
2018-07-10T18:37:39.630Z,10.63
2018-07-10T18:40:10.684Z,11.77
2018-07-10T18:42:42.212Z,12.70
2018-07-10T18:45:13.956Z,14.10
2018-07-10T18:47:45.408Z,13.07
2018-07-10T18:50:16.539Z,13.80
2018-07-10T18:52:49.982Z,12.23
2018-07-10T18:55:20.755Z,13.30
2018-07-10T18:58:27.988Z,12.10
2018-07-10T19:01:36.978Z,13.50
2018-07-10T19:04:08.572Z,13.57
2018-07-10T19:06:39.856Z,14.00
2018-07-10T19:09:16.069Z,12.90
2018-07-10T19:11:47.603Z,14.30
2018-07-10T19:14:19.493Z,13.97
2018-07-10T19:16:50.703Z,14.00
2018-07-10T19:19:22.077Z,14.60
2018-07-10T19:22:04.046Z,14.53
2018-07-10T19:24:35.902Z,20.50
2018-07-10T19:27:07.758Z,15.23
2018-07-10T19:29:51.016Z,14.40
2018-07-10T19:32:21.346Z,13.60
2018-07-10T19:34:56.601Z,14.10
2018-07-10T19:37:31.104Z,13.80
2018-07-10T19:40:03.101Z,13.27
2018-07-10T19:42:36.577Z,13.93
2018-07-10T19:45:09.194Z,14.03
2018-07-10T19:47:40.828Z,14.53
2018-07-10T19:50:17.679Z,14.30
2018-07-10T19:52:50.466Z,14.17
2018-07-10T19:55:22.641Z,14.67
2018-07-10T19:58:59.846Z,14.40
2018-07-10T20:01:48.134Z,14.30
2018-07-10T20:05:29.618Z,14.30
2018-07-10T20:08:07.723Z,15.20
2018-07-10T20:10:43.154Z,15.23
2018-07-10T20:13:20.891Z,15.23
2018-07-10T20:16:11.349Z,14.83
2018-07-10T20:19:15.490Z,15.40
2018-07-10T20:22:58.456Z,15.03
2018-07-10T20:25:31.938Z,16.20
2018-07-10T20:28:12.378Z,15.93
2018-07-10T20:30:52.568Z,15.70
2018-07-10T20:33:27.049Z,15.43
2018-07-10T20:36:00.186Z,14.60
2018-07-10T20:38:30.889Z,16.20
2018-07-10T20:41:05.792Z,15.50
2018-07-10T20:43:40.484Z,14.50
2018-07-10T20:46:12.012Z,15.73
2018-07-10T20:49:01.234Z,16.47
2018-07-10T20:51:35.181Z,15.93
2018-07-10T20:55:11.574Z,15.60
2018-07-10T20:57:47.181Z,14.20
2018-07-10T21:00:18.070Z,15.13
2018-07-10T21:16:06.385Z,14.33
2018-07-10T21:19:20.509Z,15.30
2018-07-10T21:24:06.729Z,16.23
2018-07-10T21:26:47.918Z,14.13
2018-07-10T21:30:25.420Z,15.00
2018-07-10T21:34:07.400Z,13.67
2018-07-10T21:36:46.282Z,14.00
2018-07-10T21:39:23.264Z,12.97
2018-07-10T21:42:01.539Z,14.20
2018-07-10T21:44:37.205Z,13.27
2018-07-10T21:47:22.875Z,13.77
2018-07-10T21:49:56.206Z,14.70
2018-07-10T21:52:27.213Z,14.10
2018-07-10T21:54:57.021Z,13.33
2018-07-10T21:57:33.624Z,13.97
2018-07-10T22:00:05.246Z,13.00
2018-07-10T22:02:36.067Z,12.77
2018-07-10T22:05:07.365Z,12.40
2018-07-10T22:07:37.839Z,12.63
2018-07-10T22:10:09.068Z,12.73
2018-07-10T22:12:48.887Z,13.80
2018-07-10T22:15:19.407Z,12.97
2018-07-10T22:17:50.129Z,12.40
2018-07-10T22:20:20.544Z,14.20
2018-07-10T22:22:51.525Z,13.37
2018-07-10T22:25:22.368Z,14.00
2018-07-10T22:27:53.813Z,13.70
2018-07-10T22:30:29.974Z,12.53
2018-07-10T22:33:04.718Z,13.90
2018-07-10T22:35:34.999Z,13.90
2018-07-10T22:38:05.408Z,13.13
2018-07-10T22:40:35.686Z,13.13
2018-07-10T22:43:05.762Z,13.60
2018-07-10T22:45:36.349Z,13.23
2018-07-10T22:48:08.022Z,15.20
2018-07-10T22:50:37.779Z,12.23
2018-07-10T22:53:08.340Z,14.37
2018-07-10T22:55:38.572Z,15.90
2018-07-10T22:58:08.992Z,16.20
2018-07-10T23:00:40.346Z,17.97
2018-07-10T23:03:17.386Z,16.80
2018-07-10T23:05:50.544Z,14.93
2018-07-10T23:08:28.012Z,14.83
2018-07-10T23:11:00.309Z,15.37
2018-07-10T23:13:30.686Z,15.30
2018-07-10T23:16:01.183Z,14.10
2018-07-10T23:18:31.786Z,14.90
2018-07-10T23:21:01.772Z,15.20
2018-07-10T23:23:31.924Z,14.63
2018-07-10T23:26:02.140Z,14.20
2018-07-10T23:28:32.418Z,14.17
2018-07-10T23:31:03.674Z,14.30
2018-07-10T23:33:33.997Z,14.00
2018-07-10T23:36:06.270Z,14.20
2018-07-10T23:38:43.540Z,15.27
2018-07-10T23:41:17.635Z,15.43
2018-07-10T23:43:49.170Z,14.10
2018-07-10T23:46:32.830Z,14.43
2018-07-10T23:49:12.143Z,14.90
2018-07-10T23:51:54.373Z,14.70
2018-07-10T23:54:24.590Z,15.83
2018-07-10T23:56:55.277Z,14.77
2018-07-10T23:59:25.612Z,15.40
